sensor_id;sensor_type;location;lat;lon;timestamp;temperature;humidity
54518;DHT22;40423;53.176;6.002;2023-02-24T00:01:19;4.70;99.90
54518;DHT22;40423;53.176;6.002;2023-02-24T00:03:56;4.70;99.90
54518;DHT22;40423;53.176;6.002;2023-02-24T00:06:23;4.60;99.90
54518;DHT22;40423;53.176;6.002;2023-02-24T00:08:49;4.60;99.90
54518;DHT22;40423;53.176;6.002;2023-02-24T00:11:16;4.50;99.90
54518;DHT22;40423;53.176;6.002;2023-02-24T00:13:44;4.60;99.90
54518;DHT22;40423;53.176;6.002;2023-02-24T00:16:13;4.50;99.90
54518;DHT22;40423;53.176;6.002;2023-02-24T00:18:42;4.50;99.90
54518;DHT22;40423;53.176;6.002;2023-02-24T00:21:11;4.50;99.90
54518;DHT22;40423;53.176;6.002;2023-02-24T00:23:39;4.50;99.90
54518;DHT22;40423;53.176;6.002;2023-02-24T00:26:08;4.50;99.90
54518;DHT22;40423;53.176;6.002;2023-02-24T00:28:36;4.50;99.90
54518;DHT22;40423;53.176;6.002;2023-02-24T00:31:07;4.50;99.90
54518;DHT22;40423;53.176;6.002;2023-02-24T00:33:35;4.50;99.90
54518;DHT22;40423;53.176;6.002;2023-02-24T00:36:13;4.50;99.90
54518;DHT22;40423;53.176;6.002;2023-02-24T00:38:40;4.40;99.90
54518;DHT22;40423;53.176;6.002;2023-02-24T00:41:17;4.40;99.90
54518;DHT22;40423;53.176;6.002;2023-02-24T00:43:44;4.60;99.90
54518;DHT22;40423;53.176;6.002;2023-02-24T00:46:21;4.40;99.90
54518;DHT22;40423;53.176;6.002;2023-02-24T00:48:48;4.40;99.90
54518;DHT22;40423;53.176;6.002;2023-02-24T00:51:16;4.40;99.90
54518;DHT22;40423;53.176;6.002;2023-02-24T00:53:43;4.30;99.90
54518;DHT22;40423;53.176;6.002;2023-02-24T00:56:10;4.40;99.90
54518;DHT22;40423;53.176;6.002;2023-02-24T00:58:41;4.30;99.90
54518;DHT22;40423;53.176;6.002;2023-02-24T01:01:15;4.30;99.90
54518;DHT22;40423;53.176;6.002;2023-02-24T01:03:42;4.30;99.90
54518;DHT22;40423;53.176;6.002;2023-02-24T01:06:10;4.30;99.90
54518;DHT22;40423;53.176;6.002;2023-02-24T01:08:38;4.30;99.90
54518;DHT22;40423;53.176;6.002;2023-02-24T01:11:07;4.30;99.90
54518;DHT22;40423;53.176;6.002;2023-02-24T01:13:51;4.30;99.90
54518;DHT22;40423;53.176;6.002;2023-02-24T01:16:18;4.20;99.90
54518;DHT22;40423;53.176;6.002;2023-02-24T01:18:45;4.20;99.90
54518;DHT22;40423;53.176;6.002;2023-02-24T01:21:15;4.20;99.90
54518;DHT22;40423;53.176;6.002;2023-02-24T01:23:42;4.20;99.90
54518;DHT22;40423;53.176;6.002;2023-02-24T01:26:09;4.10;99.90
54518;DHT22;40423;53.176;6.002;2023-02-24T01:28:35;4.10;99.90
54518;DHT22;40423;53.176;6.002;2023-02-24T01:31:03;4.10;99.90
54518;DHT22;40423;53.176;6.002;2023-02-24T01:33:31;4.10;99.90
54518;DHT22;40423;53.176;6.002;2023-02-24T01:36:10;4.00;99.90
54518;DHT22;40423;53.176;6.002;2023-02-24T01:38:37;4.00;99.90
54518;DHT22;40423;53.176;6.002;2023-02-24T01:41:04;3.90;99.90
54518;DHT22;40423;53.176;6.002;2023-02-24T01:46:24;3.90;99.90
54518;DHT22;40423;53.176;6.002;2023-02-24T01:48:55;3.90;99.90
54518;DHT22;40423;53.176;6.002;2023-02-24T01:51:23;3.90;99.90
54518;DHT22;40423;53.176;6.002;2023-02-24T01:53:49;4.00;99.90
54518;DHT22;40423;53.176;6.002;2023-02-24T01:56:15;4.00;99.90
54518;DHT22;40423;53.176;6.002;2023-02-24T01:58:41;4.00;99.90
54518;DHT22;40423;53.176;6.002;2023-02-24T02:01:08;4.00;99.90
54518;DHT22;40423;53.176;6.002;2023-02-24T02:03:37;4.00;99.90
54518;DHT22;40423;53.176;6.002;2023-02-24T02:06:10;4.00;99.90
54518;DHT22;40423;53.176;6.002;2023-02-24T02:08:39;4.10;99.90
54518;DHT22;40423;53.176;6.002;2023-02-24T02:11:12;4.10;99.90
54518;DHT22;40423;53.176;6.002;2023-02-24T02:13:43;4.10;99.90
54518;DHT22;40423;53.176;6.002;2023-02-24T02:40:25;4.20;99.90
54518;DHT22;40423;53.176;6.002;2023-02-24T02:45:38;4.20;99.90
54518;DHT22;40423;53.176;6.002;2023-02-24T02:50:49;4.20;99.90
54518;DHT22;40423;53.176;6.002;2023-02-24T02:53:46;4.20;99.90
54518;DHT22;40423;53.176;6.002;2023-02-24T02:56:20;4.20;99.90
54518;DHT22;40423;53.176;6.002;2023-02-24T02:58:52;4.20;99.90
54518;DHT22;40423;53.176;6.002;2023-02-24T03:01:21;4.20;99.90
54518;DHT22;40423;53.176;6.002;2023-02-24T03:03:53;4.20;99.90
54518;DHT22;40423;53.176;6.002;2023-02-24T03:06:29;4.20;99.90
54518;DHT22;40423;53.176;6.002;2023-02-24T03:09:09;4.20;99.90
54518;DHT22;40423;53.176;6.002;2023-02-24T03:12:04;4.20;99.90
54518;DHT22;40423;53.176;6.002;2023-02-24T03:14:36;4.30;99.90
54518;DHT22;40423;53.176;6.002;2023-02-24T03:17:10;4.30;99.90
54518;DHT22;40423;53.176;6.002;2023-02-24T03:19:41;4.30;99.90
54518;DHT22;40423;53.176;6.002;2023-02-24T03:22:14;4.30;99.90
54518;DHT22;40423;53.176;6.002;2023-02-24T03:24:43;4.30;99.90
54518;DHT22;40423;53.176;6.002;2023-02-24T03:27:14;4.30;99.90
54518;DHT22;40423;53.176;6.002;2023-02-24T03:33:05;4.40;99.90
54518;DHT22;40423;53.176;6.002;2023-02-24T03:35:39;4.40;99.90
54518;DHT22;40423;53.176;6.002;2023-02-24T03:38:06;4.40;99.90
54518;DHT22;40423;53.176;6.002;2023-02-24T03:40:38;4.40;99.90
54518;DHT22;40423;53.176;6.002;2023-02-24T03:45:41;4.40;99.90
54518;DHT22;40423;53.176;6.002;2023-02-24T03:48:09;4.50;99.90
54518;DHT22;40423;53.176;6.002;2023-02-24T03:50:38;4.50;99.90
54518;DHT22;40423;53.176;6.002;2023-02-24T04:01:43;4.60;99.90
54518;DHT22;40423;53.176;6.002;2023-02-24T04:04:35;4.60;99.90
54518;DHT22;40423;53.176;6.002;2023-02-24T04:10:04;4.70;99.90
54518;DHT22;40423;53.176;6.002;2023-02-24T04:15:26;4.70;99.90
54518;DHT22;40423;53.176;6.002;2023-02-24T04:18:00;4.70;99.90
54518;DHT22;40423;53.176;6.002;2023-02-24T04:20:29;4.70;99.90
54518;DHT22;40423;53.176;6.002;2023-02-24T04:23:03;4.80;99.90
54518;DHT22;40423;53.176;6.002;2023-02-24T04:25:33;4.80;99.90
54518;DHT22;40423;53.176;6.002;2023-02-24T04:28:00;4.80;99.90
54518;DHT22;40423;53.176;6.002;2023-02-24T04:30:32;4.80;99.90
54518;DHT22;40423;53.176;6.002;2023-02-24T04:32:58;4.90;99.90
54518;DHT22;40423;53.176;6.002;2023-02-24T04:35:25;4.90;99.90
54518;DHT22;40423;53.176;6.002;2023-02-24T04:37:51;4.90;99.90
54518;DHT22;40423;53.176;6.002;2023-02-24T04:40:18;4.90;99.90
54518;DHT22;40423;53.176;6.002;2023-02-24T04:42:47;5.00;99.90
54518;DHT22;40423;53.176;6.002;2023-02-24T04:45:22;4.90;99.90
54518;DHT22;40423;53.176;6.002;2023-02-24T04:47:50;5.00;99.90
54518;DHT22;40423;53.176;6.002;2023-02-24T04:50:22;5.00;99.90
54518;DHT22;40423;53.176;6.002;2023-02-24T04:53:00;5.10;99.90
54518;DHT22;40423;53.176;6.002;2023-02-24T04:55:28;5.10;99.90
54518;DHT22;40423;53.176;6.002;2023-02-24T04:57:56;5.10;99.90
54518;DHT22;40423;53.176;6.002;2023-02-24T05:00:22;5.20;99.90
54518;DHT22;40423;53.176;6.002;2023-02-24T05:02:53;5.10;99.90
54518;DHT22;40423;53.176;6.002;2023-02-24T05:05:20;5.10;99.90
54518;DHT22;40423;53.176;6.002;2023-02-24T05:08:01;5.20;99.90
54518;DHT22;40423;53.176;6.002;2023-02-24T05:10:30;5.20;99.90
54518;DHT22;40423;53.176;6.002;2023-02-24T05:12:59;5.20;99.90
54518;DHT22;40423;53.176;6.002;2023-02-24T05:15:27;5.20;99.90
54518;DHT22;40423;53.176;6.002;2023-02-24T05:18:05;5.30;99.90
54518;DHT22;40423;53.176;6.002;2023-02-24T05:20:35;5.20;99.90
54518;DHT22;40423;53.176;6.002;2023-02-24T05:23:24;5.20;99.90
54518;DHT22;40423;53.176;6.002;2023-02-24T05:25:50;5.30;99.90
54518;DHT22;40423;53.176;6.002;2023-02-24T05:28:20;5.30;99.90
54518;DHT22;40423;53.176;6.002;2023-02-24T05:30:50;5.30;99.90
54518;DHT22;40423;53.176;6.002;2023-02-24T05:33:17;5.30;99.90
54518;DHT22;40423;53.176;6.002;2023-02-24T05:35:49;5.30;99.90
54518;DHT22;40423;53.176;6.002;2023-02-24T05:38:18;5.30;99.90
54518;DHT22;40423;53.176;6.002;2023-02-24T05:40:47;5.30;99.90
54518;DHT22;40423;53.176;6.002;2023-02-24T05:43:16;5.30;99.90
54518;DHT22;40423;53.176;6.002;2023-02-24T05:45:46;5.30;99.90
54518;DHT22;40423;53.176;6.002;2023-02-24T05:48:13;5.40;99.90
54518;DHT22;40423;53.176;6.002;2023-02-24T05:50:49;5.30;99.90
54518;DHT22;40423;53.176;6.002;2023-02-24T05:53:16;5.30;99.90
54518;DHT22;40423;53.176;6.002;2023-02-24T05:55:43;5.30;99.90
54518;DHT22;40423;53.176;6.002;2023-02-24T05:58:09;5.30;99.90
54518;DHT22;40423;53.176;6.002;2023-02-24T06:00:35;5.30;99.90
54518;DHT22;40423;53.176;6.002;2023-02-24T06:03:05;5.40;99.90
54518;DHT22;40423;53.176;6.002;2023-02-24T06:05:52;5.30;99.90
54518;DHT22;40423;53.176;6.002;2023-02-24T06:08:17;5.40;99.90
54518;DHT22;40423;53.176;6.002;2023-02-24T06:10:46;5.40;99.90
54518;DHT22;40423;53.176;6.002;2023-02-24T06:13:12;5.40;99.90
54518;DHT22;40423;53.176;6.002;2023-02-24T06:15:38;5.40;99.90
54518;DHT22;40423;53.176;6.002;2023-02-24T06:18:05;5.40;99.90
54518;DHT22;40423;53.176;6.002;2023-02-24T06:20:32;5.40;99.90
54518;DHT22;40423;53.176;6.002;2023-02-24T06:22:58;5.40;99.90
54518;DHT22;40423;53.176;6.002;2023-02-24T06:25:24;5.40;99.90
54518;DHT22;40423;53.176;6.002;2023-02-24T06:27:54;5.40;99.90
54518;DHT22;40423;53.176;6.002;2023-02-24T06:30:23;5.40;99.90
54518;DHT22;40423;53.176;6.002;2023-02-24T06:32:50;5.40;99.90
54518;DHT22;40423;53.176;6.002;2023-02-24T06:35:17;5.40;99.90
54518;DHT22;40423;53.176;6.002;2023-02-24T06:37:43;5.40;99.90
54518;DHT22;40423;53.176;6.002;2023-02-24T06:40:10;5.40;99.90
54518;DHT22;40423;53.176;6.002;2023-02-24T06:42:46;5.40;99.90
54518;DHT22;40423;53.176;6.002;2023-02-24T06:45:12;5.40;99.90
54518;DHT22;40423;53.176;6.002;2023-02-24T06:47:39;5.40;99.90
54518;DHT22;40423;53.176;6.002;2023-02-24T06:50:08;5.40;99.90
54518;DHT22;40423;53.176;6.002;2023-02-24T06:52:35;5.40;99.90
54518;DHT22;40423;53.176;6.002;2023-02-24T06:55:02;5.40;99.90
54518;DHT22;40423;53.176;6.002;2023-02-24T06:57:30;5.40;99.90
54518;DHT22;40423;53.176;6.002;2023-02-24T07:00:00;5.40;99.90
54518;DHT22;40423;53.176;6.002;2023-02-24T07:02:41;5.40;99.90
54518;DHT22;40423;53.176;6.002;2023-02-24T07:05:10;5.50;99.90
54518;DHT22;40423;53.176;6.002;2023-02-24T07:07:39;5.40;99.90
54518;DHT22;40423;53.176;6.002;2023-02-24T07:10:13;5.40;99.90
54518;DHT22;40423;53.176;6.002;2023-02-24T07:12:40;5.40;99.90
54518;DHT22;40423;53.176;6.002;2023-02-24T07:15:07;5.50;99.90
54518;DHT22;40423;53.176;6.002;2023-02-24T07:17:33;5.40;99.90
54518;DHT22;40423;53.176;6.002;2023-02-24T07:19:59;5.40;99.90
54518;DHT22;40423;53.176;6.002;2023-02-24T07:22:35;5.50;99.90
54518;DHT22;40423;53.176;6.002;2023-02-24T07:25:02;5.50;99.90
54518;DHT22;40423;53.176;6.002;2023-02-24T07:27:29;5.50;99.90
54518;DHT22;40423;53.176;6.002;2023-02-24T07:29:54;5.50;99.90
54518;DHT22;40423;53.176;6.002;2023-02-24T07:32:21;5.50;99.90
54518;DHT22;40423;53.176;6.002;2023-02-24T07:34:47;5.50;99.90
54518;DHT22;40423;53.176;6.002;2023-02-24T07:37:13;5.60;99.90
54518;DHT22;40423;53.176;6.002;2023-02-24T07:39:39;5.60;99.90
54518;DHT22;40423;53.176;6.002;2023-02-24T07:42:08;5.60;99.90
54518;DHT22;40423;53.176;6.002;2023-02-24T07:44:35;5.60;99.90
54518;DHT22;40423;53.176;6.002;2023-02-24T07:47:01;5.60;99.90
54518;DHT22;40423;53.176;6.002;2023-02-24T07:49:32;5.60;99.90
54518;DHT22;40423;53.176;6.002;2023-02-24T07:51:58;5.60;99.90
54518;DHT22;40423;53.176;6.002;2023-02-24T07:54:25;5.70;99.90
54518;DHT22;40423;53.176;6.002;2023-02-24T07:56:55;5.70;99.90
54518;DHT22;40423;53.176;6.002;2023-02-24T07:59:23;5.70;99.90
54518;DHT22;40423;53.176;6.002;2023-02-24T08:01:49;5.70;99.90
54518;DHT22;40423;53.176;6.002;2023-02-24T08:04:21;5.70;99.90
54518;DHT22;40423;53.176;6.002;2023-02-24T08:06:52;5.70;99.90
54518;DHT22;40423;53.176;6.002;2023-02-24T08:09:31;5.80;99.90
54518;DHT22;40423;53.176;6.002;2023-02-24T08:12:17;5.80;99.90
54518;DHT22;40423;53.176;6.002;2023-02-24T08:14:47;5.80;99.90
54518;DHT22;40423;53.176;6.002;2023-02-24T08:17:24;5.80;99.90
54518;DHT22;40423;53.176;6.002;2023-02-24T08:19:52;5.90;99.90
54518;DHT22;40423;53.176;6.002;2023-02-24T08:22:43;5.90;99.90
54518;DHT22;40423;53.176;6.002;2023-02-24T08:25:12;6.00;99.90
54518;DHT22;40423;53.176;6.002;2023-02-24T08:27:46;6.00;99.90
54518;DHT22;40423;53.176;6.002;2023-02-24T08:30:21;6.00;99.90
54518;DHT22;40423;53.176;6.002;2023-02-24T08:32:55;6.10;99.90
54518;DHT22;40423;53.176;6.002;2023-02-24T08:35:33;6.00;99.90
54518;DHT22;40423;53.176;6.002;2023-02-24T08:38:22;6.10;99.90
54518;DHT22;40423;53.176;6.002;2023-02-24T08:40:50;6.10;99.90
54518;DHT22;40423;53.176;6.002;2023-02-24T08:45:50;6.20;99.90
54518;DHT22;40423;53.176;6.002;2023-02-24T08:48:19;6.20;99.90
54518;DHT22;40423;53.176;6.002;2023-02-24T08:50:53;6.30;99.90
54518;DHT22;40423;53.176;6.002;2023-02-24T08:53:19;6.30;99.90
54518;DHT22;40423;53.176;6.002;2023-02-24T08:55:45;6.30;99.90
54518;DHT22;40423;53.176;6.002;2023-02-24T08:58:17;6.40;99.90
54518;DHT22;40423;53.176;6.002;2023-02-24T09:00:44;6.40;99.90
54518;DHT22;40423;53.176;6.002;2023-02-24T09:03:17;6.40;99.90
54518;DHT22;40423;53.176;6.002;2023-02-24T09:06:06;6.50;99.90
54518;DHT22;40423;53.176;6.002;2023-02-24T09:08:38;6.60;99.90
54518;DHT22;40423;53.176;6.002;2023-02-24T09:11:09;6.60;99.90
54518;DHT22;40423;53.176;6.002;2023-02-24T09:13:37;6.70;99.90
54518;DHT22;40423;53.176;6.002;2023-02-24T09:16:08;6.80;99.90
54518;DHT22;40423;53.176;6.002;2023-02-24T09:18:41;6.80;99.90
54518;DHT22;40423;53.176;6.002;2023-02-24T09:21:12;6.90;99.90
54518;DHT22;40423;53.176;6.002;2023-02-24T09:24:02;6.90;99.90
54518;DHT22;40423;53.176;6.002;2023-02-24T09:26:34;7.00;99.90
54518;DHT22;40423;53.176;6.002;2023-02-24T09:29:14;7.00;99.90
54518;DHT22;40423;53.176;6.002;2023-02-24T09:32:03;7.10;99.90
54518;DHT22;40423;53.176;6.002;2023-02-24T09:34:38;7.10;99.90
54518;DHT22;40423;53.176;6.002;2023-02-24T09:37:12;7.10;99.90
54518;DHT22;40423;53.176;6.002;2023-02-24T09:39:51;7.10;99.90
54518;DHT22;40423;53.176;6.002;2023-02-24T09:42:26;7.20;99.90
54518;DHT22;40423;53.176;6.002;2023-02-24T09:45:09;7.30;99.90
54518;DHT22;40423;53.176;6.002;2023-02-24T09:47:45;7.50;99.90
54518;DHT22;40423;53.176;6.002;2023-02-24T09:52:57;7.80;99.90
54518;DHT22;40423;53.176;6.002;2023-02-24T09:56:02;7.90;99.90
54518;DHT22;40423;53.176;6.002;2023-02-24T09:58:42;8.00;99.90
54518;DHT22;40423;53.176;6.002;2023-02-24T10:07:10;8.00;99.90
54518;DHT22;40423;53.176;6.002;2023-02-24T10:09:52;8.20;99.90
54518;DHT22;40423;53.176;6.002;2023-02-24T10:12:35;8.20;99.90
54518;DHT22;40423;53.176;6.002;2023-02-24T10:15:14;8.20;99.90
54518;DHT22;40423;53.176;6.002;2023-02-24T10:17:59;8.10;99.90
54518;DHT22;40423;53.176;6.002;2023-02-24T10:20:36;8.10;99.90
54518;DHT22;40423;53.176;6.002;2023-02-24T10:23:21;8.10;99.90
54518;DHT22;40423;53.176;6.002;2023-02-24T10:26:17;8.10;99.90
54518;DHT22;40423;53.176;6.002;2023-02-24T10:31:49;8.00;99.90
54518;DHT22;40423;53.176;6.002;2023-02-24T10:34:24;8.00;99.90
54518;DHT22;40423;53.176;6.002;2023-02-24T10:37:11;7.80;99.90
54518;DHT22;40423;53.176;6.002;2023-02-24T10:39:37;8.00;99.90
54518;DHT22;40423;53.176;6.002;2023-02-24T10:42:09;7.90;99.90
54518;DHT22;40423;53.176;6.002;2023-02-24T10:44:46;7.90;99.90
54518;DHT22;40423;53.176;6.002;2023-02-24T10:47:29;8.00;99.90
54518;DHT22;40423;53.176;6.002;2023-02-24T10:50:01;8.00;99.90
54518;DHT22;40423;53.176;6.002;2023-02-24T10:52:37;8.00;99.90
54518;DHT22;40423;53.176;6.002;2023-02-24T11:01:03;8.20;99.90
54518;DHT22;40423;53.176;6.002;2023-02-24T11:03:52;8.20;99.90
54518;DHT22;40423;53.176;6.002;2023-02-24T11:06:37;8.10;99.90
54518;DHT22;40423;53.176;6.002;2023-02-24T11:09:20;8.10;99.90
54518;DHT22;40423;53.176;6.002;2023-02-24T11:12:04;8.20;99.90
54518;DHT22;40423;53.176;6.002;2023-02-24T11:14:52;8.30;99.90
54518;DHT22;40423;53.176;6.002;2023-02-24T11:22:53;8.40;99.90
54518;DHT22;40423;53.176;6.002;2023-02-24T11:25:46;8.50;99.90
54518;DHT22;40423;53.176;6.002;2023-02-24T11:28:44;8.50;99.90
54518;DHT22;40423;53.176;6.002;2023-02-24T11:45:28;8.50;99.90
54518;DHT22;40423;53.176;6.002;2023-02-24T11:50:40;8.20;99.90
54518;DHT22;40423;53.176;6.002;2023-02-24T11:56:26;8.00;99.90
54518;DHT22;40423;53.176;6.002;2023-02-24T12:04:29;7.40;99.90
54518;DHT22;40423;53.176;6.002;2023-02-24T12:07:03;7.50;99.90
54518;DHT22;40423;53.176;6.002;2023-02-24T12:09:37;7.50;99.90
54518;DHT22;40423;53.176;6.002;2023-02-24T12:12:10;7.50;99.90
54518;DHT22;40423;53.176;6.002;2023-02-24T12:14:52;7.60;99.90
54518;DHT22;40423;53.176;6.002;2023-02-24T12:17:35;7.60;99.90
54518;DHT22;40423;53.176;6.002;2023-02-24T12:20:17;7.70;99.90
54518;DHT22;40423;53.176;6.002;2023-02-24T12:22:49;7.70;99.90
54518;DHT22;40423;53.176;6.002;2023-02-24T12:25:19;7.70;99.90
54518;DHT22;40423;53.176;6.002;2023-02-24T12:28:04;7.90;99.90
54518;DHT22;40423;53.176;6.002;2023-02-24T12:36:23;8.50;99.90
54518;DHT22;40423;53.176;6.002;2023-02-24T12:47:21;9.00;99.90
54518;DHT22;40423;53.176;6.002;2023-02-24T12:50:03;8.80;99.90
54518;DHT22;40423;53.176;6.002;2023-02-24T12:52:56;8.70;99.90
54518;DHT22;40423;53.176;6.002;2023-02-24T12:55:30;8.60;99.90
54518;DHT22;40423;53.176;6.002;2023-02-24T12:58:15;8.60;99.90
54518;DHT22;40423;53.176;6.002;2023-02-24T13:06:05;8.60;99.90
54518;DHT22;40423;53.176;6.002;2023-02-24T13:11:36;8.40;99.90
54518;DHT22;40423;53.176;6.002;2023-02-24T13:17:23;8.10;99.90
54518;DHT22;40423;53.176;6.002;2023-02-24T13:19:48;8.10;99.90
54518;DHT22;40423;53.176;6.002;2023-02-24T13:22:29;8.20;99.90
54518;DHT22;40423;53.176;6.002;2023-02-24T13:27:38;8.00;99.90
54518;DHT22;40423;53.176;6.002;2023-02-24T13:30:06;7.90;99.90
54518;DHT22;40423;53.176;6.002;2023-02-24T13:32:38;7.80;99.90
54518;DHT22;40423;53.176;6.002;2023-02-24T13:37:41;7.90;99.90
54518;DHT22;40423;53.176;6.002;2023-02-24T13:40:22;7.90;99.90
54518;DHT22;40423;53.176;6.002;2023-02-24T13:45:31;7.90;99.90
54518;DHT22;40423;53.176;6.002;2023-02-24T13:51:10;7.90;99.90
54518;DHT22;40423;53.176;6.002;2023-02-24T13:56:43;7.80;99.90
54518;DHT22;40423;53.176;6.002;2023-02-24T14:01:57;7.70;99.90
54518;DHT22;40423;53.176;6.002;2023-02-24T14:04:36;7.70;99.90
54518;DHT22;40423;53.176;6.002;2023-02-24T14:07:08;7.70;99.90
54518;DHT22;40423;53.176;6.002;2023-02-24T14:09:43;7.30;99.90
54518;DHT22;40423;53.176;6.002;2023-02-24T14:14:38;6.40;99.90
54518;DHT22;40423;53.176;6.002;2023-02-24T14:19:54;6.30;99.90
54518;DHT22;40423;53.176;6.002;2023-02-24T14:22:20;6.30;99.90
54518;DHT22;40423;53.176;6.002;2023-02-24T14:24:46;6.40;99.90
54518;DHT22;40423;53.176;6.002;2023-02-24T14:27:24;6.50;99.90
54518;DHT22;40423;53.176;6.002;2023-02-24T14:29:51;6.60;99.90
54518;DHT22;40423;53.176;6.002;2023-02-24T14:32:21;6.80;99.90
54518;DHT22;40423;53.176;6.002;2023-02-24T14:34:47;6.90;99.90
54518;DHT22;40423;53.176;6.002;2023-02-24T14:37:13;7.00;99.90
54518;DHT22;40423;53.176;6.002;2023-02-24T14:40:01;7.10;99.90
54518;DHT22;40423;53.176;6.002;2023-02-24T14:42:30;7.20;99.90
54518;DHT22;40423;53.176;6.002;2023-02-24T14:44:57;7.30;99.90
54518;DHT22;40423;53.176;6.002;2023-02-24T14:47:26;7.40;99.90
54518;DHT22;40423;53.176;6.002;2023-02-24T14:49:58;7.30;99.90
54518;DHT22;40423;53.176;6.002;2023-02-24T14:52:39;7.10;99.90
54518;DHT22;40423;53.176;6.002;2023-02-24T14:55:18;6.90;99.90
54518;DHT22;40423;53.176;6.002;2023-02-24T14:57:57;6.70;99.90
54518;DHT22;40423;53.176;6.002;2023-02-24T15:00:32;6.70;99.90
54518;DHT22;40423;53.176;6.002;2023-02-24T15:03:11;6.70;99.90
54518;DHT22;40423;53.176;6.002;2023-02-24T15:05:48;6.70;99.90
54518;DHT22;40423;53.176;6.002;2023-02-24T15:11:17;6.70;99.90
54518;DHT22;40423;53.176;6.002;2023-02-24T15:13:53;6.80;99.90
54518;DHT22;40423;53.176;6.002;2023-02-24T15:16:39;6.80;99.90
54518;DHT22;40423;53.176;6.002;2023-02-24T15:19:36;6.80;99.90
54518;DHT22;40423;53.176;6.002;2023-02-24T15:24:45;6.70;99.90
54518;DHT22;40423;53.176;6.002;2023-02-24T15:29:41;6.70;99.90
54518;DHT22;40423;53.176;6.002;2023-02-24T15:32:17;6.70;99.90
54518;DHT22;40423;53.176;6.002;2023-02-24T15:34:44;6.80;99.90
54518;DHT22;40423;53.176;6.002;2023-02-24T15:37:25;6.80;99.90
54518;DHT22;40423;53.176;6.002;2023-02-24T15:40:02;6.80;99.90
54518;DHT22;40423;53.176;6.002;2023-02-24T15:42:33;6.80;99.90
54518;DHT22;40423;53.176;6.002;2023-02-24T15:47:51;6.90;99.90
54518;DHT22;40423;53.176;6.002;2023-02-24T15:50:20;6.90;99.90
54518;DHT22;40423;53.176;6.002;2023-02-24T15:52:46;7.00;99.90
54518;DHT22;40423;53.176;6.002;2023-02-24T15:55:16;7.00;99.90
54518;DHT22;40423;53.176;6.002;2023-02-24T15:57:42;7.00;99.90
54518;DHT22;40423;53.176;6.002;2023-02-24T16:00:12;6.90;99.90
54518;DHT22;40423;53.176;6.002;2023-02-24T16:02:40;6.90;99.90
54518;DHT22;40423;53.176;6.002;2023-02-24T16:05:07;6.90;99.90
54518;DHT22;40423;53.176;6.002;2023-02-24T16:07:36;6.90;99.90
54518;DHT22;40423;53.176;6.002;2023-02-24T16:10:02;6.90;99.90
54518;DHT22;40423;53.176;6.002;2023-02-24T16:12:31;6.90;99.90
54518;DHT22;40423;53.176;6.002;2023-02-24T16:15:00;6.90;99.90
54518;DHT22;40423;53.176;6.002;2023-02-24T16:17:38;6.90;99.90
54518;DHT22;40423;53.176;6.002;2023-02-24T16:20:25;6.80;99.90
54518;DHT22;40423;53.176;6.002;2023-02-24T16:23:02;6.40;99.90
54518;DHT22;40423;53.176;6.002;2023-02-24T16:25:31;6.30;99.90
54518;DHT22;40423;53.176;6.002;2023-02-24T16:28:00;6.20;99.90
54518;DHT22;40423;53.176;6.002;2023-02-24T16:30:28;6.00;99.90
54518;DHT22;40423;53.176;6.002;2023-02-24T16:32:58;5.90;99.90
54518;DHT22;40423;53.176;6.002;2023-02-24T16:35:26;5.80;99.90
54518;DHT22;40423;53.176;6.002;2023-02-24T16:37:52;5.80;99.90
54518;DHT22;40423;53.176;6.002;2023-02-24T16:40:27;5.70;99.90
54518;DHT22;40423;53.176;6.002;2023-02-24T16:42:55;5.80;99.90
54518;DHT22;40423;53.176;6.002;2023-02-24T16:45:25;5.80;99.90
54518;DHT22;40423;53.176;6.002;2023-02-24T16:47:51;5.80;99.90
54518;DHT22;40423;53.176;6.002;2023-02-24T16:50:28;5.80;99.90
54518;DHT22;40423;53.176;6.002;2023-02-24T16:52:55;5.80;99.90
54518;DHT22;40423;53.176;6.002;2023-02-24T16:55:21;5.90;99.90
54518;DHT22;40423;53.176;6.002;2023-02-24T16:57:47;6.00;99.90
54518;DHT22;40423;53.176;6.002;2023-02-24T17:00:14;6.10;99.90
54518;DHT22;40423;53.176;6.002;2023-02-24T17:02:42;6.10;99.90
54518;DHT22;40423;53.176;6.002;2023-02-24T17:05:18;6.00;99.90
54518;DHT22;40423;53.176;6.002;2023-02-24T17:07:48;5.90;99.90
54518;DHT22;40423;53.176;6.002;2023-02-24T17:10:16;5.80;99.90
54518;DHT22;40423;53.176;6.002;2023-02-24T17:12:41;5.80;99.90
54518;DHT22;40423;53.176;6.002;2023-02-24T17:15:14;5.70;99.90
54518;DHT22;40423;53.176;6.002;2023-02-24T17:17:41;5.70;99.90
54518;DHT22;40423;53.176;6.002;2023-02-24T17:20:10;5.70;99.90
54518;DHT22;40423;53.176;6.002;2023-02-24T17:22:36;5.70;99.90
54518;DHT22;40423;53.176;6.002;2023-02-24T17:25:02;5.70;99.90
54518;DHT22;40423;53.176;6.002;2023-02-24T17:27:28;5.70;99.90
54518;DHT22;40423;53.176;6.002;2023-02-24T17:29:54;5.80;99.90
54518;DHT22;40423;53.176;6.002;2023-02-24T17:32:19;5.80;99.90
54518;DHT22;40423;53.176;6.002;2023-02-24T17:34:45;5.80;99.90
54518;DHT22;40423;53.176;6.002;2023-02-24T17:37:11;5.80;99.90
54518;DHT22;40423;53.176;6.002;2023-02-24T17:39:36;5.80;99.90
54518;DHT22;40423;53.176;6.002;2023-02-24T17:42:02;5.80;99.90
54518;DHT22;40423;53.176;6.002;2023-02-24T17:44:28;5.70;99.90
54518;DHT22;40423;53.176;6.002;2023-02-24T17:46:54;5.70;99.90
54518;DHT22;40423;53.176;6.002;2023-02-24T17:49:19;5.70;99.90
54518;DHT22;40423;53.176;6.002;2023-02-24T17:51:45;5.70;99.90
54518;DHT22;40423;53.176;6.002;2023-02-24T17:54:11;5.70;99.90
54518;DHT22;40423;53.176;6.002;2023-02-24T17:56:36;5.60;99.90
54518;DHT22;40423;53.176;6.002;2023-02-24T17:59:02;5.50;99.90
54518;DHT22;40423;53.176;6.002;2023-02-24T18:01:28;5.40;99.90
54518;DHT22;40423;53.176;6.002;2023-02-24T18:03:54;5.40;99.90
54518;DHT22;40423;53.176;6.002;2023-02-24T18:06:22;5.40;99.90
54518;DHT22;40423;53.176;6.002;2023-02-24T18:08:48;5.40;99.90
54518;DHT22;40423;53.176;6.002;2023-02-24T18:11:15;5.40;99.90
54518;DHT22;40423;53.176;6.002;2023-02-24T18:13:42;5.40;99.90
54518;DHT22;40423;53.176;6.002;2023-02-24T18:16:12;5.30;99.90
54518;DHT22;40423;53.176;6.002;2023-02-24T18:18:39;5.30;99.90
54518;DHT22;40423;53.176;6.002;2023-02-24T18:21:06;5.30;99.90
54518;DHT22;40423;53.176;6.002;2023-02-24T18:23:34;5.30;99.90
54518;DHT22;40423;53.176;6.002;2023-02-24T18:26:02;5.30;99.90
54518;DHT22;40423;53.176;6.002;2023-02-24T18:28:28;5.30;99.90
54518;DHT22;40423;53.176;6.002;2023-02-24T18:30:54;5.30;99.90
54518;DHT22;40423;53.176;6.002;2023-02-24T18:33:20;5.30;99.90
54518;DHT22;40423;53.176;6.002;2023-02-24T18:35:45;5.40;99.90
54518;DHT22;40423;53.176;6.002;2023-02-24T18:38:11;5.40;99.90
54518;DHT22;40423;53.176;6.002;2023-02-24T18:40:37;5.40;99.90
54518;DHT22;40423;53.176;6.002;2023-02-24T18:43:03;5.40;99.90
54518;DHT22;40423;53.176;6.002;2023-02-24T18:45:29;5.50;99.90
54518;DHT22;40423;53.176;6.002;2023-02-24T18:47:55;5.60;99.90
54518;DHT22;40423;53.176;6.002;2023-02-24T18:50:21;5.60;99.90
54518;DHT22;40423;53.176;6.002;2023-02-24T18:52:50;5.70;99.90
54518;DHT22;40423;53.176;6.002;2023-02-24T18:55:16;5.50;99.90